sensor_id;sensor_type;location;lat;lon;timestamp;pressure;altitude;pressure_sealevel;temperature;humidity
75551;BME280;65071;53.082;18.218;2023-03-18T00:01:09;101430.67;;;4.34;56.48
75551;BME280;65071;53.082;18.218;2023-03-18T00:03:36;101432.40;;;4.32;56.25
75551;BME280;65071;53.082;18.218;2023-03-18T00:06:12;101438.22;;;4.30;56.45
75551;BME280;65071;53.082;18.218;2023-03-18T00:08:40;101439.37;;;4.29;56.58
75551;BME280;65071;53.082;18.218;2023-03-18T00:11:09;101434.71;;;4.27;56.60
75551;BME280;65071;53.082;18.218;2023-03-18T00:13:36;101427.30;;;4.29;56.37
75551;BME280;65071;53.082;18.218;2023-03-18T00:16:04;101427.05;;;4.27;56.12
75551;BME280;65071;53.082;18.218;2023-03-18T00:18:31;101423.89;;;4.26;56.49
75551;BME280;65071;53.082;18.218;2023-03-18T00:21:00;101419.67;;;4.25;56.64
75551;BME280;65071;53.082;18.218;2023-03-18T00:23:27;101414.16;;;4.22;56.56
75551;BME280;65071;53.082;18.218;2023-03-18T00:25:55;101410.17;;;4.21;56.96
75551;BME280;65071;53.082;18.218;2023-03-18T00:28:23;101409.05;;;4.19;56.60
75551;BME280;65071;53.082;18.218;2023-03-18T00:30:50;101404.20;;;4.17;56.68
75551;BME280;65071;53.082;18.218;2023-03-18T00:33:17;101403.16;;;4.13;56.67
75551;BME280;65071;53.082;18.218;2023-03-18T00:35:45;101394.09;;;4.13;56.47
75551;BME280;65071;53.082;18.218;2023-03-18T00:38:14;101394.11;;;4.13;56.43
75551;BME280;65071;53.082;18.218;2023-03-18T00:40:48;101397.66;;;4.10;56.70
75551;BME280;65071;53.082;18.218;2023-03-18T00:43:30;101398.24;;;4.10;57.15
75551;BME280;65071;53.082;18.218;2023-03-18T00:46:02;101399.55;;;4.06;56.72
75551;BME280;65071;53.082;18.218;2023-03-18T00:48:29;101400.90;;;4.04;56.92
75551;BME280;65071;53.082;18.218;2023-03-18T00:50:55;101405.11;;;4.05;56.90
75551;BME280;65071;53.082;18.218;2023-03-18T00:53:23;101400.29;;;4.03;56.84
75551;BME280;65071;53.082;18.218;2023-03-18T00:55:51;101394.21;;;4.00;57.10
75551;BME280;65071;53.082;18.218;2023-03-18T00:58:18;101395.64;;;3.97;57.70
75551;BME280;65071;53.082;18.218;2023-03-18T01:00:45;101388.66;;;3.95;57.19
75551;BME280;65071;53.082;18.218;2023-03-18T01:03:12;101382.88;;;3.91;57.15
75551;BME280;65071;53.082;18.218;2023-03-18T01:05:39;101377.55;;;3.91;57.37
75551;BME280;65071;53.082;18.218;2023-03-18T01:08:06;101376.89;;;3.87;57.53
75551;BME280;65071;53.082;18.218;2023-03-18T01:10:32;101369.60;;;3.84;58.07
75551;BME280;65071;53.082;18.218;2023-03-18T01:12:59;101372.21;;;3.83;57.86
75551;BME280;65071;53.082;18.218;2023-03-18T01:15:27;101372.54;;;3.80;57.69
75551;BME280;65071;53.082;18.218;2023-03-18T01:17:53;101367.04;;;3.77;57.86
75551;BME280;65071;53.082;18.218;2023-03-18T01:20:23;101367.54;;;3.75;58.06
75551;BME280;65071;53.082;18.218;2023-03-18T01:22:52;101367.48;;;3.73;58.04
75551;BME280;65071;53.082;18.218;2023-03-18T01:25:19;101367.94;;;3.72;57.88
75551;BME280;65071;53.082;18.218;2023-03-18T01:27:49;101362.45;;;3.71;57.89
75551;BME280;65071;53.082;18.218;2023-03-18T01:30:16;101361.55;;;3.68;58.28
75551;BME280;65071;53.082;18.218;2023-03-18T01:32:43;101364.70;;;3.66;58.28
75551;BME280;65071;53.082;18.218;2023-03-18T01:35:11;101366.42;;;3.64;58.49
75551;BME280;65071;53.082;18.218;2023-03-18T01:37:40;101366.73;;;3.62;58.62
75551;BME280;65071;53.082;18.218;2023-03-18T01:40:12;101364.95;;;3.59;58.46
75551;BME280;65071;53.082;18.218;2023-03-18T01:42:41;101363.26;;;3.55;58.61
75551;BME280;65071;53.082;18.218;2023-03-18T01:45:20;101363.49;;;3.54;58.63
75551;BME280;65071;53.082;18.218;2023-03-18T01:47:49;101369.60;;;3.53;58.74
75551;BME280;65071;53.082;18.218;2023-03-18T01:50:24;101367.16;;;3.50;58.83
75551;BME280;65071;53.082;18.218;2023-03-18T01:52:57;101368.27;;;3.48;59.00
75551;BME280;65071;53.082;18.218;2023-03-18T01:55:27;101367.25;;;3.48;58.78
75551;BME280;65071;53.082;18.218;2023-03-18T01:57:55;101366.73;;;3.48;58.94
75551;BME280;65071;53.082;18.218;2023-03-18T02:00:23;101368.48;;;3.48;59.21
75551;BME280;65071;53.082;18.218;2023-03-18T02:02:51;101364.45;;;3.47;59.01
75551;BME280;65071;53.082;18.218;2023-03-18T02:05:22;101367.21;;;3.45;59.11
75551;BME280;65071;53.082;18.218;2023-03-18T02:07:50;101368.54;;;3.44;59.24
75551;BME280;65071;53.082;18.218;2023-03-18T02:10:28;101363.70;;;3.42;58.85
75551;BME280;65071;53.082;18.218;2023-03-18T02:12:59;101363.54;;;3.42;59.41
75551;BME280;65071;53.082;18.218;2023-03-18T02:15:30;101362.90;;;3.41;58.95
75551;BME280;65071;53.082;18.218;2023-03-18T02:18:04;101364.56;;;3.39;59.53
75551;BME280;65071;53.082;18.218;2023-03-18T02:20:45;101365.60;;;3.37;59.46
75551;BME280;65071;53.082;18.218;2023-03-18T02:26:02;101368.34;;;3.33;59.00
75551;BME280;65071;53.082;18.218;2023-03-18T02:28:33;101367.23;;;3.31;59.91
75551;BME280;65071;53.082;18.218;2023-03-18T02:31:05;101365.19;;;3.29;59.72
75551;BME280;65071;53.082;18.218;2023-03-18T02:33:37;101367.45;;;3.27;60.08
75551;BME280;65071;53.082;18.218;2023-03-18T02:36:09;101367.58;;;3.25;59.82
75551;BME280;65071;53.082;18.218;2023-03-18T02:38:43;101369.36;;;3.25;60.18
75551;BME280;65071;53.082;18.218;2023-03-18T02:41:23;101367.54;;;3.23;60.03
75551;BME280;65071;53.082;18.218;2023-03-18T02:43:51;101364.14;;;3.20;59.97
75551;BME280;65071;53.082;18.218;2023-03-18T02:49:12;101369.61;;;3.18;60.34
75551;BME280;65071;53.082;18.218;2023-03-18T02:51:40;101362.41;;;3.14;60.35
75551;BME280;65071;53.082;18.218;2023-03-18T02:54:11;101366.33;;;3.11;60.63
75551;BME280;65071;53.082;18.218;2023-03-18T02:56:39;101364.20;;;3.11;60.49
75551;BME280;65071;53.082;18.218;2023-03-18T02:59:07;101359.82;;;3.09;60.29
75551;BME280;65071;53.082;18.218;2023-03-18T03:01:36;101362.61;;;3.08;61.08
75551;BME280;65071;53.082;18.218;2023-03-18T03:04:04;101366.84;;;3.05;60.97
75551;BME280;65071;53.082;18.218;2023-03-18T03:06:33;101365.73;;;3.06;61.06
75551;BME280;65071;53.082;18.218;2023-03-18T03:09:01;101365.41;;;3.05;61.58
75551;BME280;65071;53.082;18.218;2023-03-18T03:11:28;101362.16;;;3.06;61.15
75551;BME280;65071;53.082;18.218;2023-03-18T03:13:58;101353.52;;;3.05;61.07
75551;BME280;65071;53.082;18.218;2023-03-18T03:16:25;101352.25;;;3.05;60.93
75551;BME280;65071;53.082;18.218;2023-03-18T03:18:56;101354.06;;;3.05;61.29
75551;BME280;65071;53.082;18.218;2023-03-18T03:21:23;101354.34;;;3.06;61.17
75551;BME280;65071;53.082;18.218;2023-03-18T03:23:49;101352.63;;;3.05;61.47
75551;BME280;65071;53.082;18.218;2023-03-18T03:26:16;101346.81;;;3.07;61.49
75551;BME280;65071;53.082;18.218;2023-03-18T03:28:43;101342.38;;;3.07;61.31
75551;BME280;65071;53.082;18.218;2023-03-18T03:31:10;101344.98;;;3.08;60.86
75551;BME280;65071;53.082;18.218;2023-03-18T03:33:39;101347.10;;;3.08;61.39
75551;BME280;65071;53.082;18.218;2023-03-18T03:36:08;101346.46;;;3.10;61.54
75551;BME280;65071;53.082;18.218;2023-03-18T03:38:35;101339.07;;;3.09;61.35
75551;BME280;65071;53.082;18.218;2023-03-18T03:41:01;101338.45;;;3.10;61.12
75551;BME280;65071;53.082;18.218;2023-03-18T03:43:28;101343.48;;;3.12;61.05
75551;BME280;65071;53.082;18.218;2023-03-18T03:45:55;101344.92;;;3.15;61.01
75551;BME280;65071;53.082;18.218;2023-03-18T03:48:22;101338.27;;;3.16;61.06
75551;BME280;65071;53.082;18.218;2023-03-18T03:50:49;101339.64;;;3.17;60.83
75551;BME280;65071;53.082;18.218;2023-03-18T03:53:16;101340.39;;;3.19;60.99
75551;BME280;65071;53.082;18.218;2023-03-18T03:55:43;101334.59;;;3.21;60.53
75551;BME280;65071;53.082;18.218;2023-03-18T03:58:10;101328.40;;;3.24;60.82
75551;BME280;65071;53.082;18.218;2023-03-18T04:00:37;101323.69;;;3.25;60.74
75551;BME280;65071;53.082;18.218;2023-03-18T04:03:04;101320.39;;;3.27;60.94
75551;BME280;65071;53.082;18.218;2023-03-18T04:05:31;101318.69;;;3.25;60.55
75551;BME280;65071;53.082;18.218;2023-03-18T04:07:58;101320.61;;;3.26;59.96
75551;BME280;65071;53.082;18.218;2023-03-18T04:10:34;101315.15;;;3.28;60.34
75551;BME280;65071;53.082;18.218;2023-03-18T04:13:03;101311.35;;;3.29;60.46
75551;BME280;65071;53.082;18.218;2023-03-18T04:15:30;101315.48;;;3.31;60.32
75551;BME280;65071;53.082;18.218;2023-03-18T04:17:58;101314.63;;;3.31;60.26
75551;BME280;65071;53.082;18.218;2023-03-18T04:20:30;101320.25;;;3.32;60.32
75551;BME280;65071;53.082;18.218;2023-03-18T04:22:58;101326.20;;;3.33;60.13
75551;BME280;65071;53.082;18.218;2023-03-18T04:25:24;101330.95;;;3.34;60.15
75551;BME280;65071;53.082;18.218;2023-03-18T04:27:52;101329.80;;;3.35;60.04
75551;BME280;65071;53.082;18.218;2023-03-18T04:30:19;101332.30;;;3.35;60.02
75551;BME280;65071;53.082;18.218;2023-03-18T04:32:57;101335.11;;;3.36;60.04
75551;BME280;65071;53.082;18.218;2023-03-18T04:35:25;101338.33;;;3.35;60.16
75551;BME280;65071;53.082;18.218;2023-03-18T04:37:51;101338.52;;;3.35;59.95
75551;BME280;65071;53.082;18.218;2023-03-18T04:40:19;101336.52;;;3.38;59.98
75551;BME280;65071;53.082;18.218;2023-03-18T04:42:46;101337.05;;;3.39;60.01
75551;BME280;65071;53.082;18.218;2023-03-18T04:45:14;101340.02;;;3.40;59.46
75551;BME280;65071;53.082;18.218;2023-03-18T04:47:42;101338.84;;;3.38;59.80
75551;BME280;65071;53.082;18.218;2023-03-18T04:50:09;101339.57;;;3.38;59.76
75551;BME280;65071;53.082;18.218;2023-03-18T04:52:38;101340.67;;;3.38;59.67
75551;BME280;65071;53.082;18.218;2023-03-18T04:55:06;101342.48;;;3.37;60.04
75551;BME280;65071;53.082;18.218;2023-03-18T04:57:35;101339.49;;;3.37;59.99
75551;BME280;65071;53.082;18.218;2023-03-18T05:00:05;101342.38;;;3.36;59.76
75551;BME280;65071;53.082;18.218;2023-03-18T05:02:33;101342.24;;;3.35;59.88
75551;BME280;65071;53.082;18.218;2023-03-18T05:05:00;101341.77;;;3.34;59.88
75551;BME280;65071;53.082;18.218;2023-03-18T05:07:27;101341.02;;;3.32;60.37
75551;BME280;65071;53.082;18.218;2023-03-18T05:09:58;101341.46;;;3.31;60.15
75551;BME280;65071;53.082;18.218;2023-03-18T05:12:25;101342.10;;;3.29;60.13
75551;BME280;65071;53.082;18.218;2023-03-18T05:14:51;101340.10;;;3.30;60.50
75551;BME280;65071;53.082;18.218;2023-03-18T05:17:18;101340.42;;;3.30;59.90
75551;BME280;65071;53.082;18.218;2023-03-18T05:19:53;101337.31;;;3.32;60.22
75551;BME280;65071;53.082;18.218;2023-03-18T05:22:22;101336.66;;;3.33;60.19
75551;BME280;65071;53.082;18.218;2023-03-18T05:24:52;101333.98;;;3.34;60.50
75551;BME280;65071;53.082;18.218;2023-03-18T05:27:19;101328.91;;;3.35;60.28
75551;BME280;65071;53.082;18.218;2023-03-18T05:29:53;101328.20;;;3.35;60.22
75551;BME280;65071;53.082;18.218;2023-03-18T05:32:27;101326.55;;;3.36;60.63
75551;BME280;65071;53.082;18.218;2023-03-18T05:34:58;101325.16;;;3.36;60.25
75551;BME280;65071;53.082;18.218;2023-03-18T05:37:26;101323.91;;;3.39;60.35
75551;BME280;65071;53.082;18.218;2023-03-18T05:40:02;101317.48;;;3.39;60.24
75551;BME280;65071;53.082;18.218;2023-03-18T05:42:29;101312.71;;;3.39;60.46
75551;BME280;65071;53.082;18.218;2023-03-18T05:44:56;101308.42;;;3.42;59.95
75551;BME280;65071;53.082;18.218;2023-03-18T05:47:24;101302.46;;;3.43;59.94
75551;BME280;65071;53.082;18.218;2023-03-18T05:50:05;101299.63;;;3.49;59.95
75551;BME280;65071;53.082;18.218;2023-03-18T05:52:33;101302.65;;;3.52;59.85
75551;BME280;65071;53.082;18.218;2023-03-18T05:55:03;101298.30;;;3.58;59.55
75551;BME280;65071;53.082;18.218;2023-03-18T05:57:33;101298.71;;;3.63;59.56
75551;BME280;65071;53.082;18.218;2023-03-18T06:00:03;101295.24;;;3.68;59.26
75551;BME280;65071;53.082;18.218;2023-03-18T06:02:42;101295.98;;;3.73;59.41
75551;BME280;65071;53.082;18.218;2023-03-18T06:05:09;101300.16;;;3.80;59.23
75551;BME280;65071;53.082;18.218;2023-03-18T06:07:36;101300.66;;;3.83;59.03
75551;BME280;65071;53.082;18.218;2023-03-18T06:10:04;101295.34;;;3.88;58.50
75551;BME280;65071;53.082;18.218;2023-03-18T06:12:31;101289.85;;;3.93;58.17
75551;BME280;65071;53.082;18.218;2023-03-18T06:14:58;101287.55;;;4.01;58.03
75551;BME280;65071;53.082;18.218;2023-03-18T06:17:25;101284.54;;;4.09;57.93
75551;BME280;65071;53.082;18.218;2023-03-18T06:19:53;101284.15;;;4.18;57.32
75551;BME280;65071;53.082;18.218;2023-03-18T06:22:20;101287.79;;;4.27;57.08
75551;BME280;65071;53.082;18.218;2023-03-18T06:24:47;101298.61;;;4.36;56.48
75551;BME280;65071;53.082;18.218;2023-03-18T06:27:14;101306.69;;;4.46;56.52
75551;BME280;65071;53.082;18.218;2023-03-18T06:29:42;101316.64;;;4.54;56.13
75551;BME280;65071;53.082;18.218;2023-03-18T06:32:12;101317.24;;;4.64;55.90
75551;BME280;65071;53.082;18.218;2023-03-18T06:34:39;101321.90;;;4.72;55.70
75551;BME280;65071;53.082;18.218;2023-03-18T06:37:06;101315.09;;;4.80;55.44
75551;BME280;65071;53.082;18.218;2023-03-18T06:39:34;101321.16;;;4.90;55.54
75551;BME280;65071;53.082;18.218;2023-03-18T06:42:03;101320.14;;;4.95;54.89
75551;BME280;65071;53.082;18.218;2023-03-18T06:44:32;101323.50;;;5.03;54.78
75551;BME280;65071;53.082;18.218;2023-03-18T06:47:05;101324.50;;;5.09;54.54
75551;BME280;65071;53.082;18.218;2023-03-18T06:49:34;101322.33;;;5.12;54.14
75551;BME280;65071;53.082;18.218;2023-03-18T06:52:11;101322.70;;;5.22;54.30
75551;BME280;65071;53.082;18.218;2023-03-18T06:54:40;101319.77;;;5.29;53.98
75551;BME280;65071;53.082;18.218;2023-03-18T06:57:07;101320.86;;;5.38;53.91
75551;BME280;65071;53.082;18.218;2023-03-18T06:59:34;101321.02;;;5.47;53.89
75551;BME280;65071;53.082;18.218;2023-03-18T07:02:02;101327.15;;;5.50;53.56
75551;BME280;65071;53.082;18.218;2023-03-18T07:04:30;101329.55;;;5.57;53.50
75551;BME280;65071;53.082;18.218;2023-03-18T07:06:59;101334.97;;;5.61;53.19
75551;BME280;65071;53.082;18.218;2023-03-18T07:09:26;101336.81;;;5.78;53.09
75551;BME280;65071;53.082;18.218;2023-03-18T07:11:55;101337.13;;;5.89;52.46
75551;BME280;65071;53.082;18.218;2023-03-18T07:14:22;101340.96;;;6.05;52.20
75551;BME280;65071;53.082;18.218;2023-03-18T07:16:49;101340.97;;;6.22;52.11
75551;BME280;65071;53.082;18.218;2023-03-18T07:19:16;101347.39;;;6.44;51.93
75551;BME280;65071;53.082;18.218;2023-03-18T07:21:44;101350.48;;;6.57;51.09
75551;BME280;65071;53.082;18.218;2023-03-18T07:24:11;101348.05;;;6.71;50.64
75551;BME280;65071;53.082;18.218;2023-03-18T07:26:38;101346.84;;;6.80;50.61
75551;BME280;65071;53.082;18.218;2023-03-18T07:29:08;101350.81;;;6.81;50.59
75551;BME280;65071;53.082;18.218;2023-03-18T07:31:36;101354.23;;;6.77;50.06
75551;BME280;65071;53.082;18.218;2023-03-18T07:34:02;101353.42;;;6.76;51.00
75551;BME280;65071;53.082;18.218;2023-03-18T07:36:30;101357.45;;;6.72;50.61
75551;BME280;65071;53.082;18.218;2023-03-18T07:38:57;101360.89;;;6.69;50.62
75551;BME280;65071;53.082;18.218;2023-03-18T07:41:25;101362.44;;;6.70;51.09
75551;BME280;65071;53.082;18.218;2023-03-18T07:43:52;101354.86;;;6.82;50.86
75551;BME280;65071;53.082;18.218;2023-03-18T07:46:19;101355.60;;;7.03;51.04
75551;BME280;65071;53.082;18.218;2023-03-18T07:48:46;101359.19;;;7.21;49.66
75551;BME280;65071;53.082;18.218;2023-03-18T07:51:14;101355.60;;;7.47;49.81
75551;BME280;65071;53.082;18.218;2023-03-18T07:53:41;101358.53;;;7.71;49.21
75551;BME280;65071;53.082;18.218;2023-03-18T07:56:08;101360.14;;;7.89;47.94
75551;BME280;65071;53.082;18.218;2023-03-18T07:58:36;101354.13;;;8.04;47.39
75551;BME280;65071;53.082;18.218;2023-03-18T08:01:03;101346.90;;;8.20;47.11
75551;BME280;65071;53.082;18.218;2023-03-18T08:03:30;101345.94;;;8.37;46.57
75551;BME280;65071;53.082;18.218;2023-03-18T08:05:57;101341.88;;;8.47;46.32
75551;BME280;65071;53.082;18.218;2023-03-18T08:08:24;101340.64;;;8.57;45.80
75551;BME280;65071;53.082;18.218;2023-03-18T08:10:50;101334.11;;;8.73;45.75
75551;BME280;65071;53.082;18.218;2023-03-18T08:13:21;101333.40;;;8.88;45.69
75551;BME280;65071;53.082;18.218;2023-03-18T08:15:48;101333.89;;;9.04;45.17
75551;BME280;65071;53.082;18.218;2023-03-18T08:18:14;101335.98;;;9.19;45.34
75551;BME280;65071;53.082;18.218;2023-03-18T08:20:41;101334.17;;;9.29;44.84
75551;BME280;65071;53.082;18.218;2023-03-18T08:23:08;101331.67;;;9.33;44.81
75551;BME280;65071;53.082;18.218;2023-03-18T08:25:34;101334.40;;;9.33;44.78
75551;BME280;65071;53.082;18.218;2023-03-18T08:28:01;101337.77;;;9.35;44.93
75551;BME280;65071;53.082;18.218;2023-03-18T08:30:28;101333.15;;;9.37;44.94
75551;BME280;65071;53.082;18.218;2023-03-18T08:32:55;101329.95;;;9.41;45.00
75551;BME280;65071;53.082;18.218;2023-03-18T08:35:22;101329.55;;;9.45;44.40
75551;BME280;65071;53.082;18.218;2023-03-18T08:37:49;101326.51;;;9.53;44.19
75551;BME280;65071;53.082;18.218;2023-03-18T08:40:17;101326.10;;;9.70;43.86
75551;BME280;65071;53.082;18.218;2023-03-18T08:42:45;101321.52;;;9.88;43.19
75551;BME280;65071;53.082;18.218;2023-03-18T08:45:12;101325.33;;;10.03;43.02
75551;BME280;65071;53.082;18.218;2023-03-18T08:47:39;101323.83;;;10.18;42.38
75551;BME280;65071;53.082;18.218;2023-03-18T08:50:07;101321.91;;;10.15;41.90
75551;BME280;65071;53.082;18.218;2023-03-18T08:52:34;101318.41;;;10.13;41.89
75551;BME280;65071;53.082;18.218;2023-03-18T08:55:04;101317.70;;;10.10;41.98
75551;BME280;65071;53.082;18.218;2023-03-18T08:57:33;101316.40;;;10.21;42.32
75551;BME280;65071;53.082;18.218;2023-03-18T09:00:00;101312.33;;;10.28;42.68
75551;BME280;65071;53.082;18.218;2023-03-18T09:02:26;101313.99;;;10.30;42.56
75551;BME280;65071;53.082;18.218;2023-03-18T09:04:53;101309.17;;;10.25;42.59
75551;BME280;65071;53.082;18.218;2023-03-18T09:07:21;101307.59;;;10.31;42.74
75551;BME280;65071;53.082;18.218;2023-03-18T09:09:47;101307.89;;;10.39;42.73
75551;BME280;65071;53.082;18.218;2023-03-18T09:12:14;101306.31;;;10.49;42.72
75551;BME280;65071;53.082;18.218;2023-03-18T09:14:41;101305.52;;;10.51;42.63
75551;BME280;65071;53.082;18.218;2023-03-18T09:17:09;101312.69;;;10.46;42.18
75551;BME280;65071;53.082;18.218;2023-03-18T09:19:35;101310.52;;;10.52;42.29
75551;BME280;65071;53.082;18.218;2023-03-18T09:22:03;101307.54;;;10.53;41.89
75551;BME280;65071;53.082;18.218;2023-03-18T09:24:30;101308.81;;;10.49;41.95
75551;BME280;65071;53.082;18.218;2023-03-18T09:26:57;101306.09;;;10.49;42.08
75551;BME280;65071;53.082;18.218;2023-03-18T09:29:25;101301.41;;;10.63;41.99
75551;BME280;65071;53.082;18.218;2023-03-18T09:31:53;101306.59;;;10.71;41.75
75551;BME280;65071;53.082;18.218;2023-03-18T09:34:21;101305.65;;;10.77;41.40
75551;BME280;65071;53.082;18.218;2023-03-18T09:36:48;101304.09;;;10.86;41.59
75551;BME280;65071;53.082;18.218;2023-03-18T09:39:17;101303.50;;;10.93;41.36
75551;BME280;65071;53.082;18.218;2023-03-18T09:42:06;101299.98;;;11.04;41.96
75551;BME280;65071;53.082;18.218;2023-03-18T09:44:35;101293.72;;;11.09;41.30
75551;BME280;65071;53.082;18.218;2023-03-18T09:50:15;101294.73;;;11.32;41.60
75551;BME280;65071;53.082;18.218;2023-03-18T09:52:57;101293.48;;;11.39;41.67
75551;BME280;65071;53.082;18.218;2023-03-18T09:55:36;101283.77;;;11.46;41.17
75551;BME280;65071;53.082;18.218;2023-03-18T10:00:45;101282.05;;;11.60;40.35
75551;BME280;65071;53.082;18.218;2023-03-18T10:04:08;101286.77;;;11.70;40.23
75551;BME280;65071;53.082;18.218;2023-03-18T10:06:16;101285.05;;;11.75;39.75
75551;BME280;65071;53.082;18.218;2023-03-18T10:11:22;101285.48;;;11.72;39.72
75551;BME280;65071;53.082;18.218;2023-03-18T10:19:25;101287.08;;;11.85;39.60
75551;BME280;65071;53.082;18.218;2023-03-18T10:24:41;101280.63;;;11.94;39.36
75551;BME280;65071;53.082;18.218;2023-03-18T10:27:25;101277.08;;;12.01;40.08
75551;BME280;65071;53.082;18.218;2023-03-18T10:30:55;101277.24;;;12.14;40.00
75551;BME280;65071;53.082;18.218;2023-03-18T10:33:06;101276.23;;;12.25;40.16
75551;BME280;65071;53.082;18.218;2023-03-18T10:35:47;101272.95;;;12.39;40.06
75551;BME280;65071;53.082;18.218;2023-03-18T10:38:18;101263.84;;;12.54;39.95
75551;BME280;65071;53.082;18.218;2023-03-18T10:40:48;101262.70;;;12.66;39.77
75551;BME280;65071;53.082;18.218;2023-03-18T10:43:26;101260.13;;;12.72;39.60
75551;BME280;65071;53.082;18.218;2023-03-18T10:46:00;101251.61;;;12.88;39.63
75551;BME280;65071;53.082;18.218;2023-03-18T10:56:10;101242.93;;;13.10;38.51
75551;BME280;65071;53.082;18.218;2023-03-18T10:58:38;101243.85;;;13.19;38.17
75551;BME280;65071;53.082;18.218;2023-03-18T11:01:08;101246.95;;;13.22;37.82
75551;BME280;65071;53.082;18.218;2023-03-18T11:04:02;101245.56;;;13.27;38.04
75551;BME280;65071;53.082;18.218;2023-03-18T11:06:39;101245.68;;;13.25;38.13
75551;BME280;65071;53.082;18.218;2023-03-18T11:09:11;101243.14;;;13.24;37.40
75551;BME280;65071;53.082;18.218;2023-03-18T11:11:41;101243.97;;;13.23;37.80
75551;BME280;65071;53.082;18.218;2023-03-18T11:14:20;101244.92;;;13.19;37.93
75551;BME280;65071;53.082;18.218;2023-03-18T11:16:56;101247.20;;;13.19;37.87
75551;BME280;65071;53.082;18.218;2023-03-18T11:19:47;101250.31;;;13.05;37.46
75551;BME280;65071;53.082;18.218;2023-03-18T11:22:20;101245.71;;;12.95;37.92
75551;BME280;65071;53.082;18.218;2023-03-18T11:25:03;101246.13;;;12.87;38.13
75551;BME280;65071;53.082;18.218;2023-03-18T11:27:38;101240.79;;;12.85;38.51
75551;BME280;65071;53.082;18.218;2023-03-18T11:32:51;101233.90;;;13.05;38.43
75551;BME280;65071;53.082;18.218;2023-03-18T11:35:24;101235.86;;;13.16;38.60
75551;BME280;65071;53.082;18.218;2023-03-18T11:38:01;101235.24;;;13.23;38.40
75551;BME280;65071;53.082;18.218;2023-03-18T11:40:28;101237.80;;;13.37;38.47
75551;BME280;65071;53.082;18.218;2023-03-18T11:42:59;101234.95;;;13.41;38.08
75551;BME280;65071;53.082;18.218;2023-03-18T11:45:58;101231.92;;;13.49;37.50
75551;BME280;65071;53.082;18.218;2023-03-18T11:48:40;101225.32;;;13.50;37.16
75551;BME280;65071;53.082;18.218;2023-03-18T11:56:59;101219.35;;;13.65;37.45
75551;BME280;65071;53.082;18.218;2023-03-18T12:00:05;101213.61;;;13.63;37.19
75551;BME280;65071;53.082;18.218;2023-03-18T12:03:04;101208.16;;;13.65;37.66
75551;BME280;65071;53.082;18.218;2023-03-18T12:05:38;101208.88;;;13.67;37.55
75551;BME280;65071;53.082;18.218;2023-03-18T12:08:27;101205.80;;;13.71;37.78
75551;BME280;65071;53.082;18.218;2023-03-18T12:11:10;101205.27;;;13.76;37.70
75551;BME280;65071;53.082;18.218;2023-03-18T12:13:50;101209.71;;;13.78;37.82
75551;BME280;65071;53.082;18.218;2023-03-18T12:16:36;101214.75;;;13.73;37.73
75551;BME280;65071;53.082;18.218;2023-03-18T12:19:35;101217.52;;;13.80;38.07
75551;BME280;65071;53.082;18.218;2023-03-18T12:22:28;101219.04;;;13.79;37.70
75551;BME280;65071;53.082;18.218;2023-03-18T12:33:52;101224.36;;;14.03;37.79
75551;BME280;65071;53.082;18.218;2023-03-18T12:42:10;101218.20;;;14.13;37.38
75551;BME280;65071;53.082;18.218;2023-03-18T12:47:43;101218.84;;;14.09;37.75
75551;BME280;65071;53.082;18.218;2023-03-18T12:50:18;101215.27;;;14.05;37.63
75551;BME280;65071;53.082;18.218;2023-03-18T12:52:57;101216.80;;;14.01;37.48
75551;BME280;65071;53.082;18.218;2023-03-18T13:03:30;101217.69;;;13.78;37.87
75551;BME280;65071;53.082;18.218;2023-03-18T13:06:21;101219.84;;;13.78;37.81
75551;BME280;65071;53.082;18.218;2023-03-18T13:09:26;101217.70;;;13.81;37.99
75551;BME280;65071;53.082;18.218;2023-03-18T13:12:10;101222.02;;;13.86;38.05
75551;BME280;65071;53.082;18.218;2023-03-18T13:14:53;101223.75;;;13.94;38.13
75551;BME280;65071;53.082;18.218;2023-03-18T13:17:31;101219.94;;;13.99;38.09
75551;BME280;65071;53.082;18.218;2023-03-18T13:20:08;101225.26;;;14.03;38.01
75551;BME280;65071;53.082;18.218;2023-03-18T13:27:57;101224.55;;;14.25;37.52
75551;BME280;65071;53.082;18.218;2023-03-18T13:33:35;101217.61;;;14.13;37.62
75551;BME280;65071;53.082;18.218;2023-03-18T13:42:19;101212.71;;;14.07;38.62
75551;BME280;65071;53.082;18.218;2023-03-18T13:47:19;101210.65;;;14.06;38.45
75551;BME280;65071;53.082;18.218;2023-03-18T13:49:57;101214.94;;;14.03;38.32
75551;BME280;65071;53.082;18.218;2023-03-18T13:52:49;101210.73;;;14.02;38.62
75551;BME280;65071;53.082;18.218;2023-03-18T14:00:40;101214.78;;;13.90;38.36
75551;BME280;65071;53.082;18.218;2023-03-18T14:03:18;101212.70;;;13.87;38.65
75551;BME280;65071;53.082;18.218;2023-03-18T14:08:45;101218.23;;;13.86;39.00
75551;BME280;65071;53.082;18.218;2023-03-18T14:13:43;101217.13;;;13.90;38.99
75551;BME280;65071;53.082;18.218;2023-03-18T14:16:12;101211.07;;;13.92;39.06
75551;BME280;65071;53.082;18.218;2023-03-18T14:18:40;101206.51;;;13.94;38.77
75551;BME280;65071;53.082;18.218;2023-03-18T14:21:23;101201.43;;;13.93;38.30
75551;BME280;65071;53.082;18.218;2023-03-18T14:24:32;101204.77;;;13.95;38.44
75551;BME280;65071;53.082;18.218;2023-03-18T14:29:40;101201.15;;;13.90;38.13
75551;BME280;65071;53.082;18.218;2023-03-18T14:35:28;101197.58;;;13.86;38.47
75551;BME280;65071;53.082;18.218;2023-03-18T14:38:08;101195.40;;;13.92;39.00
75551;BME280;65071;53.082;18.218;2023-03-18T14:40:44;101197.38;;;13.95;38.78
75551;BME280;65071;53.082;18.218;2023-03-18T14:43:39;101191.46;;;13.93;38.71
75551;BME280;65071;53.082;18.218;2023-03-18T14:46:14;101188.52;;;13.93;38.69